Time;durP1;ratioP1;P1;durP2;ratioP2;P2;SDS_P1;SDS_P2;PMS_P1;PMS_P2;Temp;Humidity;BMP_temperature;BMP_pressure;BME280_temperature;BME280_humidity;BME280_pressure;Samples;Min_cycle;Max_cycle;Signal;HPM_P1;HPM_P2
2022/01/11 05:32:31;;;;;;;;;28.50;23.75;;;;;5.39;67.64;102661.38;5055386;27;45521;-70
2022/01/11 05:34:57;;;;;;;;;31.50;26.25;;;;;5.49;67.85;102678.28;5036066;28;47035;-70
2022/01/11 05:37:22;;;;;;;;;29.00;24.25;;;;;5.55;67.51;102689.84;5055514;28;45528;-69
2022/01/11 05:39:49;;;;;;;;;30.25;25.50;;;;;5.57;67.26;102685.41;5057455;28;45390;-70
2022/01/11 05:42:15;;;;;;;;;31.50;26.50;;;;;5.47;67.38;102656.09;5057450;28;45252;-69
2022/01/11 05:44:40;;;;;;;;;33.25;26.25;;;;;5.60;67.51;102672.16;5039522;28;48794;-71
2022/01/11 05:47:06;;;;;;;;;35.75;27.25;;;;;5.64;67.24;102681.00;5057166;28;45370;-69
2022/01/11 05:49:31;;;;;;;;;33.25;28.50;;;;;5.53;66.06;102685.41;5057126;28;45440;-71
2022/01/11 05:51:56;;;;;;;;;33.50;28.50;;;;;5.50;66.66;102698.69;5057079;28;45375;-70
2022/01/11 05:54:22;;;;;;;;;34.75;27.25;;;;;5.46;66.78;102703.06;5056402;28;46114;-70
2022/01/11 05:56:47;;;;;;;;;36.25;28.75;;;;;5.51;66.96;102711.09;5056636;28;45362;-70
2022/01/11 05:59:13;;;;;;;;;34.25;28.25;;;;;5.53;66.86;102718.19;5056853;28;45481;-70
2022/01/11 06:01:38;;;;;;;;;39.00;29.75;;;;;5.55;66.95;102705.81;5056804;28;45426;-71
2022/01/11 06:04:04;;;;;;;;;46.25;32.00;;;;;5.51;67.35;102706.69;5056750;28;45363;-70
2022/01/11 06:06:29;;;;;;;;;38.75;32.00;;;;;5.42;66.33;102711.03;5056968;28;45267;-72
2022/01/11 06:08:54;;;;;;;;;32.75;25.75;;;;;5.38;67.18;102726.06;5056739;28;46684;-71
2022/01/11 06:11:20;;;;;;;;;38.25;28.75;;;;;5.27;67.12;102718.00;5058009;28;45264;-70
2022/01/11 06:13:45;;;;;;;;;40.75;27.50;;;;;5.23;67.78;102720.66;5056224;28;46076;-70
2022/01/11 06:16:11;;;;;;;;;31.50;29.00;;;;;5.22;67.36;102733.06;5038678;28;45265;-73
2022/01/11 06:18:36;;;;;;;;;22.50;19.75;;;;;5.15;67.79;102730.34;5057344;28;45343;-69
2022/01/11 06:21:03;;;;;;;;;29.50;25.50;;;;;5.11;67.66;102733.84;5056829;28;45621;-72
2022/01/11 06:23:29;;;;;;;;;43.00;30.25;;;;;5.18;67.86;102743.66;5038398;28;45403;-71
2022/01/11 06:25:54;;;;;;;;;31.50;23.50;;;;;5.10;67.59;102724.09;5056409;28;45755;-71
2022/01/11 06:28:19;;;;;;;;;38.00;30.00;;;;;5.22;67.47;102738.38;5056477;28;45677;-72
2022/01/11 06:30:47;;;;;;;;;30.25;26.00;;;;;5.21;66.19;102747.22;5056085;28;45381;-71
2022/01/11 06:33:13;;;;;;;;;32.00;27.25;;;;;5.12;66.57;102732.97;5056061;28;45414;-72
2022/01/11 06:35:38;;;;;;;;;30.00;28.00;;;;;5.11;66.85;102742.69;5056663;28;45402;-75
2022/01/11 06:38:03;;;;;;;;;33.00;26.00;;;;;5.09;67.09;102749.81;5038232;28;45486;-73
2022/01/11 06:40:29;;;;;;;;;35.25;32.50;;;;;4.99;66.89;102750.59;5055897;28;45370;-73
2022/01/11 06:42:54;;;;;;;;;31.25;26.00;;;;;4.92;67.06;102738.13;5056695;28;45438;-72
2022/01/11 06:45:21;;;;;;;;;38.00;33.25;;;;;4.90;66.91;102740.75;5056041;28;45624;-71
2022/01/11 06:47:47;;;;;;;;;46.00;32.50;;;;;4.86;66.94;102741.59;5055297;28;45536;-70
2022/01/11 06:50:12;;;;;;;;;40.75;33.25;;;;;4.81;67.64;102742.44;5055803;28;45402;-71
2022/01/11 06:52:38;;;;;;;;;25.25;20.75;;;;;4.69;67.34;102729.91;5055777;28;45314;-70
2022/01/11 06:55:05;;;;;;;;;41.50;27.50;;;;;4.76;67.90;102755.69;5055857;28;45323;-70
2022/01/11 06:57:31;;;;;;;;;36.25;34.75;;;;;4.75;68.01;102759.22;5055857;28;45505;-69
2022/01/11 06:59:56;;;;;;;;;32.00;25.00;;;;;4.73;68.35;102753.00;5056049;28;45362;-71
2022/01/11 07:02:22;;;;;;;;;39.25;33.25;;;;;4.73;67.79;102752.09;5055532;28;45898;-68
2022/01/11 07:04:47;;;;;;;;;42.75;30.00;;;;;4.77;67.82;102760.09;5055870;28;45277;-69
2022/01/11 07:07:12;;;;;;;;;31.25;29.00;;;;;4.79;68.49;102753.03;5055657;28;45622;-69
2022/01/11 07:09:38;;;;;;;;;34.50;27.75;;;;;4.80;68.32;102752.19;5055867;28;45396;-70
2022/01/11 07:12:04;;;;;;;;;41.50;30.25;;;;;4.74;67.93;102737.94;5055487;28;45391;-70
2022/01/11 07:14:30;;;;;;;;;39.75;29.00;;;;;4.76;67.58;102746.84;5055263;28;45366;-73
2022/01/11 07:16:55;;;;;;;;;40.00;29.25;;;;;4.80;67.08;102762.81;5054467;28;45330;-70
2022/01/11 07:19:20;;;;;;;;;35.75;28.25;;;;;4.66;67.23;102759.13;5054840;28;45417;-71
2022/01/11 07:21:47;;;;;;;;;38.50;31.25;;;;;4.68;67.42;102775.09;5053785;28;45854;-70
2022/01/11 07:24:13;;;;;;;;;37.75;32.50;;;;;4.71;67.42;102778.66;5055654;28;45343;-70
2022/01/11 07:26:39;;;;;;;;;37.75;34.25;;;;;4.66;67.07;102772.41;5037120;28;45482;-70
2022/01/11 07:29:05;;;;;;;;;41.50;32.25;;;;;4.65;66.97;102780.34;5055504;28;45390;-70
2022/01/11 07:31:31;;;;;;;;;45.25;33.00;;;;;4.59;67.42;102785.59;5055176;28;46198;-72
2022/01/11 07:33:57;;;;;;;;;35.50;29.50;;;;;4.48;67.58;102775.75;5055570;28;45347;-70
2022/01/11 07:36:23;;;;;;;;;40.25;29.50;;;;;4.29;67.61;102760.47;5055585;28;45412;-71
2022/01/11 07:38:50;;;;;;;;;35.50;30.25;;;;;4.37;67.87;102805.69;5055378;28;45603;-72
2022/01/11 07:41:16;;;;;;;;;35.25;28.75;;;;;4.37;67.66;102811.00;5053675;28;47234;-71
2022/01/11 07:43:42;;;;;;;;;39.75;32.25;;;;;4.31;68.03;102816.25;5055562;28;45666;-70
2022/01/11 07:46:07;;;;;;;;;33.75;28.75;;;;;4.32;68.50;102823.34;5055264;28;45477;-70
2022/01/11 07:48:32;;;;;;;;;38.00;30.50;;;;;4.30;68.34;102828.63;5053743;28;46870;-71
2022/01/11 07:50:58;;;;;;;;;40.50;29.25;;;;;4.28;68.00;102821.50;5054965;28;46159;-70
2022/01/11 07:53:23;;;;;;;;;45.00;30.75;;;;;4.31;68.19;102816.25;5054363;28;45370;-70
2022/01/11 07:55:48;;;;;;;;;36.75;30.25;;;;;4.34;68.71;102825.13;5054036;28;45884;-70
2022/01/11 07:58:14;;;;;;;;;35.25;29.25;;;;;4.39;68.50;102817.22;5054075;28;45179;-70
2022/01/11 08:00:40;;;;;;;;;31.75;28.50;;;;;4.40;68.52;102808.41;5054051;28;45410;-69
2022/01/11 08:03:05;;;;;;;;;39.00;29.25;;;;;4.46;68.36;102812.00;5054694;28;45254;-70
2022/01/11 08:05:30;;;;;;;;;35.75;34.25;;;;;4.48;68.35;102828.88;5054386;28;45464;-71
2022/01/11 08:07:56;;;;;;;;;36.50;32.75;;;;;4.53;67.96;102831.56;5054672;28;46062;-72
2022/01/11 08:10:21;;;;;;;;;37.00;32.75;;;;;4.54;67.98;102826.28;5054275;28;45295;-71
2022/01/11 08:12:46;;;;;;;;;43.50;38.00;;;;;4.56;68.11;102832.50;5054237;28;45379;-70
2022/01/11 08:15:12;;;;;;;;;48.25;37.50;;;;;4.63;67.86;102832.56;5054725;28;45338;-71
2022/01/11 08:17:39;;;;;;;;;42.75;38.75;;;;;4.51;67.73;102836.84;5055054;28;45489;-70
2022/01/11 08:20:05;;;;;;;;;43.25;37.50;;;;;4.51;68.07;102844.81;5053755;28;46103;-69
2022/01/11 08:22:30;;;;;;;;;43.50;28.50;;;;;4.48;67.82;102835.94;5054269;28;45367;-71
2022/01/11 08:24:55;;;;;;;;;45.50;37.50;;;;;4.34;68.19;102835.75;5054499;28;45337;-71
2022/01/11 08:27:22;;;;;;;;;35.75;25.25;;;;;4.33;68.40;102855.22;5053791;28;45296;-71
2022/01/11 08:29:50;;;;;;;;;37.00;34.00;;;;;4.35;68.25;102857.88;5053725;28;46549;-71
2022/01/11 08:32:15;;;;;;;;;37.50;31.00;;;;;4.39;68.50;102865.94;5054419;28;45323;-71
2022/01/11 08:34:42;;;;;;;;;52.33;36.00;;;;;4.39;67.99;102863.28;5052595;28;45469;-69
2022/01/11 08:37:08;;;;;;;;;38.75;34.25;;;;;4.42;68.25;102871.25;5053133;28;45471;-70
2022/01/11 08:39:34;;;;;;;;;39.00;34.25;;;;;4.43;68.01;102880.13;5054470;28;46061;-71
2022/01/11 08:42:00;;;;;;;;;33.25;30.75;;;;;4.41;68.63;102882.78;5054535;28;45348;-68
2022/01/11 08:44:25;;;;;;;;;50.33;38.33;;;;;4.44;68.34;102871.28;5056132;28;45354;-70
2022/01/11 08:46:51;;;;;;;;;46.75;38.00;;;;;4.51;68.00;102883.75;5054436;28;45665;-71
2022/01/11 08:49:17;;;;;;;;;49.50;36.00;;;;;4.57;68.29;102873.25;5054268;28;45847;-70
2022/01/11 08:51:43;;;;;;;;;42.75;34.75;;;;;4.44;67.40;102842.06;5054547;28;45382;-71
2022/01/11 08:54:11;;;;;;;;;41.75;33.00;;;;;4.63;67.80;102868.00;5054539;28;45481;-71
2022/01/11 08:56:37;;;;;;;;;42.75;37.75;;;;;4.63;67.79;102862.69;5054521;28;45340;-70
2022/01/11 08:59:03;;;;;;;;;39.00;34.50;;;;;4.70;67.70;102861.00;5054262;28;45437;-70
2022/01/11 09:01:31;;;;;;;;;45.75;32.25;;;;;4.69;67.57;102852.13;5054588;28;45411;-70
2022/01/11 09:03:57;;;;;;;;;37.00;30.25;;;;;4.76;67.34;102853.13;5054272;28;45678;-71
2022/01/11 09:06:23;;;;;;;;;39.25;32.00;;;;;4.79;67.36;102859.34;5054596;28;46864;-71
2022/01/11 09:08:48;;;;;;;;;41.25;34.00;;;;;4.77;67.42;102860.19;5054034;28;45473;-70
2022/01/11 09:11:14;;;;;;;;;47.33;38.00;;;;;4.87;66.58;102870.06;5053975;28;45281;-71
2022/01/11 09:13:39;;;;;;;;;54.00;39.75;;;;;4.90;66.70;102880.72;5057927;28;45371;-69
2022/01/11 09:16:05;;;;;;;;;40.25;35.25;;;;;4.91;66.75;102871.88;5057664;28;45485;-72
2022/01/11 09:18:31;;;;;;;;;53.00;39.50;;;;;4.95;66.72;102879.91;5057483;28;45720;-71
2022/01/11 09:21:00;;;;;;;;;36.75;33.50;;;;;4.97;67.06;102873.72;5057862;28;45384;-71
2022/01/11 09:23:29;;;;;;;;;49.75;38.50;;;;;5.00;67.15;102879.97;5057576;28;45370;-70
2022/01/11 09:25:55;;;;;;;;;42.75;39.00;;;;;4.98;66.56;102868.41;5057388;28;45170;-70
2022/01/11 09:28:22;;;;;;;;;54.00;40.50;;;;;5.12;66.42;102885.41;5057388;28;45265;-70
2022/01/11 09:30:48;;;;;;;;;47.25;38.00;;;;;5.10;66.27;102867.66;5057137;28;45401;-70
2022/01/11 09:33:13;;;;;;;;;47.25;39.00;;;;;5.18;66.12;102884.59;5057742;28;45512;-70
2022/01/11 09:35:39;;;;;;;;;39.00;34.00;;;;;5.22;66.05;102887.28;5057367;28;45418;-71
2022/01/11 09:38:04;;;;;;;;;50.00;33.50;;;;;5.25;65.96;102884.66;5057090;28;46127;-70
2022/01/11 09:40:30;;;;;;;;;49.00;36.50;;;;;5.19;66.27;102876.59;5057078;28;45300;-71
2022/01/11 09:42:55;;;;;;;;;45.75;38.25;;;;;5.24;66.07;102895.28;5058326;28;45438;-70
2022/01/11 09:45:21;;;;;;;;;45.50;37.50;;;;;5.24;65.29;102895.28;5057285;28;45385;-71
2022/01/11 09:47:47;;;;;;;;;59.50;39.25;;;;;5.21;65.15;102895.25;5057015;28;45394;-71
2022/01/11 09:50:15;;;;;;;;;44.75;35.00;;;;;5.12;65.09;102882.75;5068612;28;45374;-71
2022/01/11 09:52:41;;;;;;;;;51.00;38.25;;;;;5.20;65.72;102906.75;5074252;27;45373;-72
2022/01/11 09:55:10;;;;;;;;;38.00;31.75;;;;;5.14;65.50;102898.72;5056901;28;45509;-70
2022/01/11 09:57:36;;;;;;;;;40.50;35.50;;;;;5.15;65.11;102905.81;5056949;28;45522;-71
2022/01/11 10:00:05;;;;;;;;;35.50;32.00;;;;;5.16;65.29;102902.28;5056883;28;45354;-70
2022/01/11 10:02:30;;;;;;;;;45.25;38.25;;;;;5.13;65.72;102912.88;5056936;28;45252;-70
2022/01/11 10:05:02;;;;;;;;;43.00;35.00;;;;;5.12;65.73;102908.44;5056884;28;45568;-70
2022/01/11 10:07:33;;;;;;;;;42.00;27.50;;;;;5.09;65.56;102917.28;5057103;28;46394;-70
2022/01/11 10:09:59;;;;;;;;;52.00;39.50;;;;;5.08;66.01;102922.56;5056862;28;45401;-72
2022/01/11 10:12:26;;;;;;;;;43.00;32.75;;;;;5.05;66.23;102915.44;5039014;28;45367;-71
2022/01/11 10:14:54;;;;;;;;;54.50;40.25;;;;;5.01;65.49;102918.06;5056777;28;45571;-70
2022/01/11 10:17:29;;;;;;;;;46.50;37.00;;;;;5.00;65.99;102919.84;5056715;28;46180;-70
2022/01/11 10:20:10;;;;;;;;;53.75;39.75;;;;;4.97;66.26;102924.22;5056787;28;45342;-69
2022/01/11 10:22:57;;;;;;;;;50.00;35.25;;;;;4.94;66.76;102920.63;5056402;28;45314;-70
2022/01/11 10:25:23;;;;;;;;;53.00;38.00;;;;;4.96;66.53;102936.59;5056549;28;45418;-71
2022/01/11 10:28:01;;;;;;;;;45.25;38.75;;;;;4.93;66.45;102924.16;5038401;28;47489;-70
2022/01/11 10:30:27;;;;;;;;;39.50;31.50;;;;;4.97;67.32;102937.50;5056448;28;45472;-71
2022/01/11 10:32:55;;;;;;;;;6.00;2.75;;;;;5.04;66.91;102931.38;5056390;28;45291;-71
2022/01/11 10:35:30;;;;;;;;;45.50;29.25;;;;;5.08;66.42;102939.44;5036216;28;46128;-70
2022/01/11 10:38:02;;;;;;;;;52.00;37.50;;;;;4.92;66.68;102902.91;5054234;28;45382;-71
2022/01/11 10:40:34;;;;;;;;;45.00;34.25;;;;;5.11;66.08;102947.41;5054642;28;45762;-69
2022/01/11 10:43:04;;;;;;;;;43.75;36.00;;;;;5.04;66.52;102928.72;5057709;28;45430;-70
2022/01/11 10:45:35;;;;;;;;;49.00;40.25;;;;;5.09;66.21;102930.59;5055139;28;45447;-69
2022/01/11 10:48:22;;;;;;;;;48.75;36.50;;;;;5.03;66.20;102930.47;5046472;28;46287;-70
2022/01/11 10:50:53;;;;;;;;;48.75;36.50;;;;;5.10;66.40;102950.09;5055693;28;45224;-70
2022/01/11 10:53:27;;;;;;;;;49.25;39.00;;;;;5.03;66.43;102940.22;5056036;28;45505;-69
2022/01/11 10:55:58;;;;;;;;;47.50;38.75;;;;;5.05;66.45;102939.38;5055394;28;45314;-72
2022/01/11 10:58:24;;;;;;;;;51.50;41.25;;;;;5.06;66.12;102946.47;5055773;28;46553;-71
2022/01/11 11:00:51;;;;;;;;;44.75;34.00;;;;;4.98;66.52;102942.84;5055862;28;45406;-71
2022/01/11 11:03:33;;;;;;;;;55.25;41.50;;;;;4.91;66.84;102931.25;5038077;28;45481;-70
2022/01/11 11:06:07;;;;;;;;;54.67;39.00;;;;;4.90;66.82;102929.47;5056218;28;45417;-70
2022/01/11 11:08:39;;;;;;;;;56.00;44.00;;;;;4.88;67.04;102925.00;5037828;28;46145;-71
2022/01/11 11:11:20;;;;;;;;;50.25;38.25;;;;;4.92;67.06;102933.03;5055753;28;45484;-69
2022/01/11 11:13:48;;;;;;;;;47.75;38.00;;;;;5.01;67.59;102934.03;5056001;28;45512;-71
2022/01/11 11:16:30;;;;;;;;;43.25;36.00;;;;;5.12;66.55;102948.31;5055921;28;45482;-71
2022/01/11 11:18:58;;;;;;;;;42.50;34.50;;;;;5.22;66.07;102950.22;5056020;28;45385;-71
2022/01/11 11:21:25;;;;;;;;;51.50;38.25;;;;;5.29;65.51;102958.25;5055872;28;45293;-71
2022/01/11 11:23:54;;;;;;;;;45.25;38.00;;;;;5.31;65.73;102945.88;5055879;28;45486;-70
2022/01/11 11:26:22;;;;;;;;;50.25;36.00;;;;;5.36;65.52;102943.25;5055413;28;45370;-70
2022/01/11 11:28:47;;;;;;;;;56.75;41.25;;;;;5.35;65.30;102922.00;5055813;28;45413;-69
2022/01/11 11:31:13;;;;;;;;;60.00;41.00;;;;;5.50;65.32;102932.78;5055179;28;45380;-71
2022/01/11 11:33:40;;;;;;;;;48.50;40.00;;;;;5.53;65.67;102928.38;5050599;28;45442;-72
2022/01/11 11:36:06;;;;;;;;;43.75;38.00;;;;;5.60;64.71;102924.91;5049829;28;45619;-71
2022/01/11 11:38:34;;;;;;;;;47.33;38.67;;;;;5.68;65.30;102930.31;5053846;28;45584;-70
2022/01/11 11:41:01;;;;;;;;;43.25;36.75;;;;;5.76;65.46;102922.38;5055078;28;45422;-70
2022/01/11 11:43:26;;;;;;;;;51.25;40.50;;;;;5.89;64.97;102935.84;5056699;28;45529;-71
2022/01/11 11:45:52;;;;;;;;;49.00;41.25;;;;;5.80;64.44;102916.19;5054749;28;45258;-70
2022/01/11 11:48:23;;;;;;;;;60.00;40.50;;;;;5.93;64.47;102927.00;5061105;28;45951;-72
2022/01/11 11:50:57;;;;;;;;;44.50;36.75;;;;;6.06;63.91;102930.63;5054410;28;45485;-71
2022/01/11 11:53:32;;;;;;;;;53.25;40.00;;;;;6.06;63.71;102917.31;5054750;28;45366;-70
2022/01/11 11:56:13;;;;;;;;;45.00;35.25;;;;;6.11;63.62;102917.38;5042539;28;46643;-70
2022/01/11 11:58:58;;;;;;;;;52.25;39.75;;;;;6.16;62.53;102923.63;5054603;28;45522;-73
2022/01/11 12:01:44;;;;;;;;;55.25;39.50;;;;;6.21;63.35;102920.09;5037018;28;46438;-73
2022/01/11 12:04:33;;;;;;;;;56.25;42.25;;;;;6.25;63.29;102916.59;5055795;28;45386;-72
2022/01/11 12:07:32;;;;;;;;;48.50;40.50;;;;;6.36;62.81;102917.56;5062545;28;46185;-73
2022/01/11 12:09:59;;;;;;;;;47.25;35.50;;;;;6.41;62.43;102922.91;5040218;28;47641;-73
2022/01/11 12:12:49;;;;;;;;;58.50;41.00;;;;;6.44;62.32;102925.59;5054966;28;45413;-72
2022/01/11 12:15:35;;;;;;;;;51.25;40.00;;;;;6.45;62.40;102927.38;5037369;28;45401;-72
2022/01/11 12:18:00;;;;;;;;;45.75;39.75;;;;;6.46;62.30;102919.38;5037582;28;45439;-70
2022/01/11 12:20:58;;;;;;;;;57.50;41.00;;;;;6.34;62.26;102903.31;5054724;28;46126;-71
2022/01/11 12:23:35;;;;;;;;;46.00;37.00;;;;;6.36;62.95;102912.22;5048706;28;45365;-74
2022/01/11 12:26:20;;;;;;;;;53.75;36.25;;;;;6.33;62.46;102912.19;5054184;28;45520;-74
2022/01/11 12:29:11;;;;;;;;;43.00;36.75;;;;;6.37;62.91;102908.69;5043415;28;45478;-70
2022/01/11 12:31:46;;;;;;;;;52.75;40.00;;;;;6.44;63.34;102899.84;5052623;28;47227;-73
2022/01/11 12:34:13;;;;;;;;;56.75;43.50;;;;;6.57;62.54;102918.53;5056792;28;46033;-74
2022/01/11 12:36:51;;;;;;;;;51.25;38.50;;;;;6.60;62.71;102918.56;5064519;28;45313;-74
2022/01/11 12:39:16;;;;;;;;;58.50;39.25;;;;;6.59;62.17;102914.13;5055262;28;45350;-71
2022/01/11 12:41:42;;;;;;;;;46.00;39.00;;;;;6.60;62.32;102915.91;5058558;28;45545;-72
2022/01/11 12:46:57;;;;;;;;;56.75;44.50;;;;;6.52;62.75;102904.31;5056364;28;45720;-72
2022/01/11 12:49:23;;;;;;;;;50.00;40.00;;;;;6.45;62.82;102879.41;5054375;28;45387;-73
2022/01/11 12:51:54;;;;;;;;;53.00;37.00;;;;;6.61;62.54;102909.69;5053580;28;45496;-72
2022/01/11 12:54:28;;;;;;;;;56.75;40.50;;;;;6.70;61.95;102905.31;5054077;28;45509;-71
2022/01/11 12:57:15;;;;;;;;;43.25;36.25;;;;;6.72;62.42;102884.00;5053627;28;45356;-72
2022/01/11 12:59:45;;;;;;;;;56.00;42.25;;;;;6.83;61.30;102895.56;5054081;28;45594;-73
2022/01/11 13:02:19;;;;;;;;;50.75;39.00;;;;;6.78;61.68;102879.56;5053601;28;46246;-72
2022/01/11 13:04:50;;;;;;;;;49.50;38.75;;;;;6.90;61.67;102894.69;5054222;28;45327;-73
2022/01/11 13:07:25;;;;;;;;;50.75;38.50;;;;;6.95;61.56;102895.63;5054609;28;45456;-71
2022/01/11 13:10:00;;;;;;;;;58.50;43.25;;;;;6.98;61.41;102905.38;5053790;28;45328;-71
2022/01/11 13:12:32;;;;;;;;;51.00;39.75;;;;;7.06;61.74;102915.19;5035877;28;47866;-72
2022/01/11 13:15:13;;;;;;;;;51.50;40.25;;;;;6.97;61.06;102883.19;5053943;28;45411;-73
2022/01/11 13:18:09;;;;;;;;;44.00;40.25;;;;;7.25;61.31;102925.91;5054268;28;45336;-73
2022/01/11 13:20:49;;;;;;;;;55.25;41.50;;;;;7.26;60.37;102922.38;5054263;28;45220;-72
2022/01/11 13:23:28;;;;;;;;;60.25;41.25;;;;;7.13;60.67;102918.78;5054264;28;45513;-73
2022/01/11 13:26:03;;;;;;;;;55.00;39.50;;;;;7.04;60.10;102903.66;5054459;28;45619;-75
2022/01/11 13:28:58;;;;;;;;;64.25;42.75;;;;;7.09;60.31;102917.00;5054576;28;45363;-72
2022/01/11 13:31:26;;;;;;;;;52.00;41.00;;;;;6.94;60.60;102908.94;5051906;28;45378;-72
2022/01/11 13:33:55;;;;;;;;;55.25;38.75;;;;;6.91;61.60;102901.81;5035806;28;46416;-73
2022/01/11 13:36:24;;;;;;;;;58.50;39.75;;;;;6.94;61.94;102909.84;5054059;28;45551;-73
2022/01/11 13:38:52;;;;;;;;;49.75;38.50;;;;;6.91;61.83;102895.59;5053841;28;45347;-73
2022/01/11 13:41:28;;;;;;;;;47.75;38.75;;;;;6.92;61.09;102892.94;5035398;28;46266;-72
2022/01/11 13:43:57;;;;;;;;;51.00;40.00;;;;;7.06;60.93;102915.19;5053842;28;45327;-73
2022/01/11 13:46:24;;;;;;;;;42.75;36.25;;;;;7.08;60.67;102902.75;5053894;28;45272;-73
2022/01/11 13:48:51;;;;;;;;;40.25;36.00;;;;;7.11;60.81;102910.78;5053678;28;45383;-72
2022/01/11 13:51:24;;;;;;;;;52.75;36.75;;;;;7.13;60.88;102911.69;5053643;28;45359;-71
2022/01/11 13:54:03;;;;;;;;;56.50;38.50;;;;;7.15;61.12;102915.22;5053416;28;45574;-73
2022/01/11 13:56:31;;;;;;;;;49.25;39.75;;;;;7.13;61.00;102906.34;5053512;28;45484;-74
2022/01/11 13:58:58;;;;;;;;;49.75;39.25;;;;;7.09;61.17;102907.22;5056328;28;45791;-74
2022/01/11 14:01:25;;;;;;;;;54.50;40.50;;;;;7.09;61.12;102901.88;5057308;28;45304;-73
2022/01/11 14:04:11;;;;;;;;;52.50;37.75;;;;;7.17;60.99;102913.47;5056917;28;46114;-73
2022/01/11 14:06:41;;;;;;;;;49.00;39.00;;;;;7.30;61.19;102906.38;5055549;28;45535;-74
2022/01/11 14:09:11;;;;;;;;;55.00;40.25;;;;;7.36;60.74;102908.16;5057172;28;45302;-72
2022/01/11 14:11:40;;;;;;;;;51.00;39.75;;;;;7.42;59.97;102902.84;5056403;28;45481;-73
2022/01/11 14:14:06;;;;;;;;;54.25;39.00;;;;;7.52;60.16;102915.31;5038321;28;46381;-73
2022/01/11 14:16:40;;;;;;;;;54.75;41.25;;;;;7.46;60.22;102902.84;5056719;28;45466;-73
2022/01/11 14:19:12;;;;;;;;;57.00;39.00;;;;;7.35;59.97;102872.59;5056741;28;45462;-71
2022/01/11 14:21:53;;;;;;;;;46.75;39.00;;;;;7.51;59.51;102906.41;5056660;28;45406;-73
2022/01/11 14:24:19;;;;;;;;;54.50;39.75;;;;;7.60;59.41;102919.75;5056501;28;45418;-73
2022/01/11 14:26:45;;;;;;;;;50.75;39.00;;;;;7.70;59.22;102911.75;5038484;28;45456;-73
2022/01/11 14:29:22;;;;;;;;;57.50;43.75;;;;;8.03;58.87;102918.88;5056781;28;45694;-73
2022/01/11 14:32:07;;;;;;;;;52.25;39.00;;;;;8.35;58.01;102917.97;5055017;28;46495;-73
2022/01/11 14:34:34;;;;;;;;;52.00;39.50;;;;;8.71;56.83;102916.09;5056819;28;45247;-73
2022/01/11 14:37:19;;;;;;;;;52.50;37.25;;;;;9.02;55.89;102909.72;5056639;28;45492;-74
2022/01/11 14:39:47;;;;;;;;;53.25;36.75;;;;;9.28;54.53;102909.56;5056974;28;45272;-73
2022/01/11 14:42:20;;;;;;;;;48.25;37.25;;;;;9.51;54.08;102900.53;5056711;28;45374;-73
2022/01/11 14:45:01;;;;;;;;;52.75;42.00;;;;;9.74;53.37;102918.19;5056967;28;46436;-74
2022/01/11 14:47:26;;;;;;;;;35.25;31.50;;;;;9.85;52.78;102915.44;5056198;28;45310;-72
2022/01/11 14:49:51;;;;;;;;;46.00;31.25;;;;;9.94;53.36;102914.47;5056541;28;45588;-71
2022/01/11 14:52:20;;;;;;;;;50.50;39.75;;;;;9.97;52.10;102915.31;5055926;28;45612;-74
2022/01/11 14:54:54;;;;;;;;;49.75;35.75;;;;;9.79;51.36;102907.44;5056018;28;47124;-73
2022/01/11 14:57:20;;;;;;;;;49.75;39.00;;;;;9.77;52.75;102904.78;5056301;28;45441;-73
2022/01/11 14:59:47;;;;;;;;;53.00;36.25;;;;;9.88;52.32;102923.44;5038194;28;45337;-73
2022/01/11 15:02:28;;;;;;;;;51.25;39.75;;;;;9.89;52.22;102917.16;5055934;28;45478;-73
2022/01/11 15:04:53;;;;;;;;;47.75;36.50;;;;;9.70;51.85;102895.00;5056092;28;45376;-72
2022/01/11 15:07:20;;;;;;;;;47.75;37.25;;;;;9.71;52.00;102906.59;5056112;28;46026;-72
2022/01/11 15:09:47;;;;;;;;;53.00;38.00;;;;;9.73;52.24;102920.88;5054853;28;45478;-72
2022/01/11 15:12:23;;;;;;;;;46.50;40.75;;;;;9.67;52.99;102919.16;5056038;28;45446;-72
2022/01/11 15:14:54;;;;;;;;;51.50;38.00;;;;;9.64;52.50;102899.53;5055727;28;45991;-72
2022/01/11 15:17:21;;;;;;;;;49.25;39.25;;;;;9.63;53.05;102920.06;5055954;28;45329;-73
2022/01/11 15:19:47;;;;;;;;;46.75;34.75;;;;;9.44;53.31;102903.22;5056161;28;45410;-72
2022/01/11 15:22:12;;;;;;;;;52.00;38.75;;;;;9.32;53.81;102910.47;5055991;28;45528;-73
2022/01/11 15:24:38;;;;;;;;;50.75;40.25;;;;;9.09;54.38;102916.84;5055223;28;46197;-73
2022/01/11 15:27:04;;;;;;;;;45.25;36.75;;;;;8.96;54.53;102919.56;5055800;28;45282;-73
2022/01/11 15:29:30;;;;;;;;;48.00;37.50;;;;;8.76;55.27;102929.47;5055582;28;45535;-72
2022/01/11 15:31:58;;;;;;;;;41.50;37.00;;;;;8.59;56.19;102934.88;5055418;28;46215;-72
2022/01/11 15:34:24;;;;;;;;;44.25;37.75;;;;;8.38;55.37;102929.56;5055387;28;45367;-73
2022/01/11 15:36:51;;;;;;;;;53.75;37.75;;;;;8.17;55.85;102944.69;5055488;28;45389;-73
2022/01/11 15:39:17;;;;;;;;;54.50;39.00;;;;;7.90;56.89;102931.38;5055372;28;45328;-74
2022/01/11 15:41:43;;;;;;;;;47.00;39.50;;;;;7.70;57.30;102918.00;5055240;28;45524;-72
2022/01/11 15:44:11;;;;;;;;;49.75;41.50;;;;;7.51;57.60;102917.09;5055314;28;45401;-73
2022/01/11 15:46:41;;;;;;;;;48.25;36.25;;;;;7.46;58.53;102929.53;5055512;28;45233;-73
2022/01/11 15:49:08;;;;;;;;;48.25;39.00;;;;;7.32;58.92;102930.38;5055573;28;45399;-73
2022/01/11 15:51:34;;;;;;;;;52.75;38.75;;;;;7.21;59.25;102925.94;5055391;28;45416;-73
2022/01/11 15:54:02;;;;;;;;;50.75;41.00;;;;;7.19;59.84;102933.03;5036800;28;47380;-73
2022/01/11 15:56:28;;;;;;;;;51.00;38.50;;;;;7.06;59.76;102930.34;5055234;28;45265;-73
2022/01/11 15:58:55;;;;;;;;;44.75;36.50;;;;;7.09;60.32;102944.56;5055811;28;45481;-76
2022/01/11 16:01:22;;;;;;;;;48.50;40.50;;;;;7.10;60.75;102943.66;5055541;28;45382;-73
2022/01/11 16:03:47;;;;;;;;;55.25;40.00;;;;;7.04;61.20;102949.00;5058464;28;45583;-74
2022/01/11 16:06:13;;;;;;;;;48.00;41.00;;;;;6.93;61.08;102941.81;5057332;28;45548;-74
2022/01/11 16:08:39;;;;;;;;;55.00;41.50;;;;;6.94;61.10;102951.59;5055026;28;45418;-72
2022/01/11 16:11:05;;;;;;;;;56.75;43.75;;;;;6.89;60.95;102964.03;5054907;28;45252;-74
2022/01/11 16:13:30;;;;;;;;;51.75;37.25;;;;;6.81;61.32;102962.19;5054911;28;45287;-72
2022/01/11 16:15:56;;;;;;;;;55.25;40.00;;;;;6.72;61.26;102964.81;5055071;28;45407;-73
2022/01/11 16:18:21;;;;;;;;;58.00;42.75;;;;;6.67;61.62;102963.03;5054887;28;45299;-73
2022/01/11 16:20:47;;;;;;;;;57.75;41.00;;;;;6.48;61.93;102943.34;5036092;28;45343;-73
2022/01/11 16:23:13;;;;;;;;;50.25;36.75;;;;;6.40;62.53;102930.00;5054127;28;45286;-73
2022/01/11 16:25:38;;;;;;;;;46.25;40.00;;;;;6.50;62.77;102957.59;5054662;28;45505;-74
2022/01/11 16:28:05;;;;;;;;;53.25;41.75;;;;;6.40;62.36;102955.75;5054582;28;45496;-71
2022/01/11 16:30:37;;;;;;;;;46.50;35.50;;;;;6.36;62.41;102962.84;5055266;28;45357;-71
2022/01/11 16:33:08;;;;;;;;;55.00;42.00;;;;;6.30;62.99;102969.88;5066076;28;45457;-72
2022/01/11 16:35:36;;;;;;;;;51.00;41.75;;;;;6.22;63.23;102963.59;5054903;28;45324;-71
2022/01/11 16:38:05;;;;;;;;;56.50;43.25;;;;;6.18;62.90;102968.03;5054908;28;45533;-72
2022/01/11 16:43:10;;;;;;;;;60.50;39.25;;;;;6.11;63.36;102968.88;5054250;28;46238;-70
2022/01/11 16:45:39;;;;;;;;;46.50;40.75;;;;;6.04;62.95;102970.56;5054401;28;45465;-70
2022/01/11 16:48:05;;;;;;;;;50.00;41.25;;;;;5.89;63.63;102961.56;5036447;28;45347;-72
2022/01/11 16:50:31;;;;;;;;;44.25;37.50;;;;;5.96;63.71;102993.56;5054004;28;45571;-71
2022/01/11 16:52:57;;;;;;;;;51.75;40.25;;;;;5.90;63.78;102995.28;5054382;28;45430;-70
2022/01/11 16:55:24;;;;;;;;;52.00;43.67;;;;;5.81;64.40;102988.06;5054151;28;45355;-71
2022/01/11 16:57:51;;;;;;;;;63.50;40.25;;;;;5.76;64.63;102987.16;5054836;28;45352;-75
2022/01/11 17:00:17;;;;;;;;;61.00;45.00;;;;;5.77;64.55;102988.03;5053990;28;45387;-72
2022/01/11 17:02:43;;;;;;;;;58.00;46.67;;;;;5.74;64.84;103001.31;5054387;28;45432;-72